KDUC/DUC METAR and TAF weather

Enter ICAO airport designator
Station Type Date Time Source
KDUC METAR 2020/04/07 03:35 UTC NOAA

KDUC 070335Z AUTO 16010KT 10SM OVC026 19/17 A2995 RMK AO2 T01850168


Station Type Date Time Source
KDUC Decoded METAR 2020/04/07 03:35 UTC NOAA

Duncan, Halliburton Field Airport, OK, United States (KDUC) 34-28-15N 097-57-36W
Apr 06, 2020 - 11:35 PM EDT / 2020.04.07 0335 UTC
Wind: from the SSE (160 degrees) at 12 MPH (10 KT):0
Visibility: 10 mile(s):0
Sky conditions: overcast
Temperature: 65.3 F (18.5 C)
Dew Point: 62.2 F (16.8 C)
Relative Humidity: 89%
Pressure (altimeter): 29.95 in. Hg (1014 hPa)
ob: KDUC 070335Z AUTO 16010KT 10SM OVC026 19/17 A2995 RMK AO2 T01850168
cycle: 3

Station Type Date Time Source
KDUC TAF UTC NOAA

Error!

Example: see airport list